Time;durP1;ratioP1;P1;durP2;ratioP2;P2;SDS_P1;SDS_P2;PMS_P1;PMS_P2;Temp;Humidity;BMP_temperature;BMP_pressure;BME280_temperature;BME280_humidity;BME280_pressure;Samples;Min_cycle;Max_cycle;Signal;HPM_P1;HPM_P2
2022/05/27 00:00:42;;;;;;;2.77;2.10;;;;;;;;;;5053465;28;20437;-78
2022/05/27 00:03:09;;;;;;;4.53;2.70;;;;;;;;;;5052250;28;20532;-78
2022/05/27 00:05:36;;;;;;;2.03;1.90;;;;;;;;;;5052969;28;20437;-80
2022/05/27 00:08:03;;;;;;;1.93;1.77;;;;;;;;;;5052859;28;20457;-78
2022/05/27 00:10:30;;;;;;;2.10;2.00;;;;;;;;;;5052976;28;21007;-78
2022/05/27 00:12:57;;;;;;;2.67;2.43;;;;;;;;;;5052677;28;20995;-78
2022/05/27 00:15:24;;;;;;;1.97;1.87;;;;;;;;;;5052817;28;20491;-79
2022/05/27 00:17:52;;;;;;;2.40;2.20;;;;;;;;;;5052800;28;20441;-78
2022/05/27 00:20:20;;;;;;;2.10;1.90;;;;;;;;;;5052737;28;20442;-79
2022/05/27 00:22:47;;;;;;;2.17;2.00;;;;;;;;;;5052599;28;20444;-78
2022/05/27 00:25:14;;;;;;;2.23;2.13;;;;;;;;;;5053015;28;20499;-78
2022/05/27 00:27:41;;;;;;;2.30;2.10;;;;;;;;;;5053096;28;21001;-77
2022/05/27 00:30:09;;;;;;;2.10;2.00;;;;;;;;;;5052858;28;20491;-78
2022/05/27 00:32:38;;;;;;;1.90;1.80;;;;;;;;;;5052549;28;20992;-78
2022/05/27 00:35:06;;;;;;;1.87;1.77;;;;;;;;;;5052723;28;20461;-78
2022/05/27 00:37:33;;;;;;;2.40;1.60;;;;;;;;;;5052711;28;20827;-78
2022/05/27 00:40:01;;;;;;;2.20;2.10;;;;;;;;;;5057435;28;20469;-78
2022/05/27 00:42:28;;;;;;;2.10;1.90;;;;;;;;;;5052697;28;20528;-78
2022/05/27 00:44:55;;;;;;;3.33;2.07;;;;;;;;;;5052125;28;20602;-79
2022/05/27 00:47:24;;;;;;;2.73;2.00;;;;;;;;;;5052490;28;20438;-79
2022/05/27 00:49:55;;;;;;;2.10;1.90;;;;;;;;;;5052134;28;20457;-78
2022/05/27 00:52:25;;;;;;;2.20;2.10;;;;;;;;;;5051557;28;20485;-79
2022/05/27 00:54:52;;;;;;;2.10;2.00;;;;;;;;;;5052205;28;20445;-78
2022/05/27 00:57:22;;;;;;;2.03;1.90;;;;;;;;;;5052481;28;20525;-77
2022/05/27 00:59:51;;;;;;;3.57;1.93;;;;;;;;;;5052553;28;20523;-77
2022/05/27 01:02:18;;;;;;;2.97;1.90;;;;;;;;;;5054176;28;20492;-77
2022/05/27 01:04:46;;;;;;;2.93;2.00;;;;;;;;;;5052808;28;20476;-78
2022/05/27 01:07:13;;;;;;;2.30;2.20;;;;;;;;;;5052017;28;20488;-78
2022/05/27 01:09:42;;;;;;;2.17;1.80;;;;;;;;;;5051934;28;20460;-78
2022/05/27 01:12:20;;;;;;;4.97;2.17;;;;;;;;;;5051842;28;20557;-79
2022/05/27 01:14:57;;;;;;;2.47;2.27;;;;;;;;;;5052244;28;20450;-78
2022/05/27 01:17:28;;;;;;;1.90;1.80;;;;;;;;;;5051644;28;20507;-80
2022/05/27 01:20:18;;;;;;;2.20;2.10;;;;;;;;;;5051880;28;20532;-78
2022/05/27 01:22:47;;;;;;;3.93;2.37;;;;;;;;;;5051708;28;20463;-79
2022/05/27 01:25:33;;;;;;;2.00;1.90;;;;;;;;;;5057216;28;20429;-77
2022/05/27 01:28:12;;;;;;;2.87;2.40;;;;;;;;;;5056451;28;20457;-78
2022/05/27 01:30:42;;;;;;;2.10;2.00;;;;;;;;;;5052184;28;21000;-78
2022/05/27 01:33:14;;;;;;;1.80;1.70;;;;;;;;;;5051727;28;20473;-79
2022/05/27 01:35:44;;;;;;;2.20;2.10;;;;;;;;;;5051642;28;20446;-78
2022/05/27 01:38:14;;;;;;;2.20;2.00;;;;;;;;;;5051654;28;20461;-77
2022/05/27 01:40:47;;;;;;;2.40;2.20;;;;;;;;;;5055691;28;20536;-77
2022/05/27 01:43:17;;;;;;;2.40;2.30;;;;;;;;;;5055125;28;20426;-79
2022/05/27 01:45:49;;;;;;;1.80;1.70;;;;;;;;;;5053144;28;20453;-77
2022/05/27 01:48:20;;;;;;;2.43;2.20;;;;;;;;;;5058400;28;20461;-79
2022/05/27 01:50:51;;;;;;;2.77;2.57;;;;;;;;;;5055492;28;20447;-80
2022/05/27 01:53:20;;;;;;;2.33;2.10;;;;;;;;;;5051401;28;20538;-78
2022/05/27 01:55:51;;;;;;;2.50;2.23;;;;;;;;;;5051399;28;20479;-78
2022/05/27 01:58:20;;;;;;;2.53;2.33;;;;;;;;;;5051544;28;20458;-78
2022/05/27 02:00:50;;;;;;;2.00;1.80;;;;;;;;;;5051683;28;20434;-78
2022/05/27 02:03:20;;;;;;;2.47;2.27;;;;;;;;;;5052637;28;20437;-79
2022/05/27 02:05:50;;;;;;;3.70;2.20;;;;;;;;;;5055732;28;20437;-79
2022/05/27 02:08:19;;;;;;;2.10;2.00;;;;;;;;;;5055253;28;20518;-78
2022/05/27 02:10:50;;;;;;;1.97;1.83;;;;;;;;;;5056302;28;20446;-79
2022/05/27 02:13:20;;;;;;;1.83;1.70;;;;;;;;;;5055846;28;20473;-78
2022/05/27 02:15:50;;;;;;;2.37;2.23;;;;;;;;;;5057242;28;20503;-78
2022/05/27 02:18:21;;;;;;;2.50;2.30;;;;;;;;;;5057822;28;20509;-78
2022/05/27 02:20:51;;;;;;;3.40;1.80;;;;;;;;;;5056929;28;20449;-78
2022/05/27 02:23:22;;;;;;;2.00;1.80;;;;;;;;;;5056543;28;20499;-78
2022/05/27 02:25:50;;;;;;;3.17;1.80;;;;;;;;;;5057900;28;20426;-78
2022/05/27 02:28:18;;;;;;;4.40;2.33;;;;;;;;;;5058075;28;20466;-78
2022/05/27 02:30:47;;;;;;;2.97;2.13;;;;;;;;;;5058066;28;20491;-78
2022/05/27 02:36:04;;;;;;;2.30;2.20;;;;;;;;;;5057411;28;20405;-80
2022/05/27 02:38:31;;;;;;;2.50;2.30;;;;;;;;;;5057315;28;20469;-80
2022/05/27 02:41:02;;;;;;;3.07;2.87;;;;;;;;;;5057532;28;20505;-78
2022/05/27 02:43:31;;;;;;;2.57;2.37;;;;;;;;;;5057341;28;20429;-79
2022/05/27 02:46:04;;;;;;;2.50;2.30;;;;;;;;;;5058228;28;20442;-78
2022/05/27 02:48:37;;;;;;;3.10;2.73;;;;;;;;;;5057613;28;20878;-78
2022/05/27 02:51:06;;;;;;;2.17;2.07;;;;;;;;;;5057506;28;20445;-77
2022/05/27 02:53:45;;;;;;;2.67;2.37;;;;;;;;;;5056923;28;20504;-79
2022/05/27 02:56:15;;;;;;;3.13;2.10;;;;;;;;;;5057794;28;20441;-78
2022/05/27 02:58:42;;;;;;;2.50;2.30;;;;;;;;;;5057760;28;20898;-79
2022/05/27 03:01:09;;;;;;;2.90;2.37;;;;;;;;;;5057554;28;20437;-78
2022/05/27 03:03:38;;;;;;;2.27;2.07;;;;;;;;;;5057032;28;20433;-77
2022/05/27 03:06:15;;;;;;;2.30;2.10;;;;;;;;;;5056499;28;20446;-78
2022/05/27 03:08:47;;;;;;;2.70;2.50;;;;;;;;;;5057739;28;20523;-79
2022/05/27 03:11:15;;;;;;;2.60;2.40;;;;;;;;;;5057170;28;20848;-80
2022/05/27 03:13:49;;;;;;;3.33;2.57;;;;;;;;;;5057676;28;20527;-78
2022/05/27 03:16:20;;;;;;;2.40;2.30;;;;;;;;;;5056320;28;20452;-79
2022/05/27 03:19:02;;;;;;;2.90;2.70;;;;;;;;;;5057193;28;20465;-78
2022/05/27 03:21:32;;;;;;;3.00;2.30;;;;;;;;;;5057292;28;20446;-79
2022/05/27 03:24:14;;;;;;;2.30;2.20;;;;;;;;;;5057686;28;20441;-79
2022/05/27 03:26:46;;;;;;;4.33;2.43;;;;;;;;;;5054037;28;20485;-79
2022/05/27 03:29:19;;;;;;;2.80;2.60;;;;;;;;;;5057318;28;20472;-78
2022/05/27 03:31:49;;;;;;;2.77;2.60;;;;;;;;;;5056893;28;20492;-78
2022/05/27 03:34:21;;;;;;;2.53;2.00;;;;;;;;;;5057074;28;20438;-79
2022/05/27 03:36:52;;;;;;;2.70;2.50;;;;;;;;;;5056645;28;20472;-78
2022/05/27 03:39:23;;;;;;;2.20;2.10;;;;;;;;;;5055486;28;20861;-78
2022/05/27 03:41:53;;;;;;;2.90;2.67;;;;;;;;;;5054769;28;20450;-77
2022/05/27 03:44:26;;;;;;;2.97;2.67;;;;;;;;;;5055172;28;20519;-78
2022/05/27 03:46:54;;;;;;;2.37;2.27;;;;;;;;;;5055366;28;20969;-77
2022/05/27 03:49:22;;;;;;;2.70;2.50;;;;;;;;;;5054852;28;20528;-78
2022/05/27 03:51:52;;;;;;;2.73;2.40;;;;;;;;;;5055188;28;20442;-77
2022/05/27 03:54:21;;;;;;;2.37;2.17;;;;;;;;;;5054463;28;20859;-78
2022/05/27 03:56:48;;;;;;;2.90;2.70;;;;;;;;;;5054525;28;20442;-78
2022/05/27 03:59:16;;;;;;;2.23;2.10;;;;;;;;;;5053746;28;20473;-79
2022/05/27 04:01:44;;;;;;;2.33;2.23;;;;;;;;;;5055127;28;20492;-78
2022/05/27 04:04:13;;;;;;;3.60;3.10;;;;;;;;;;5053667;28;20438;-78
2022/05/27 04:06:41;;;;;;;2.80;2.60;;;;;;;;;;5053113;28;20492;-78
2022/05/27 04:09:09;;;;;;;3.53;2.53;;;;;;;;;;5053476;28;20469;-78
2022/05/27 04:11:36;;;;;;;2.80;2.60;;;;;;;;;;5057617;28;20828;-78
2022/05/27 04:14:03;;;;;;;2.70;2.50;;;;;;;;;;5057038;28;20477;-79
2022/05/27 04:16:30;;;;;;;4.20;2.50;;;;;;;;;;5053405;28;20868;-78
2022/05/27 04:18:57;;;;;;;3.10;2.80;;;;;;;;;;5053154;28;20473;-78
2022/05/27 04:21:24;;;;;;;2.67;2.47;;;;;;;;;;5053199;28;20454;-78
2022/05/27 04:23:54;;;;;;;4.30;2.60;;;;;;;;;;5052255;28;20445;-80
2022/05/27 04:26:21;;;;;;;2.50;2.27;;;;;;;;;;5051927;28;20840;-77
2022/05/27 04:28:48;;;;;;;3.83;3.00;;;;;;;;;;5052516;28;20461;-77
2022/05/27 04:31:15;;;;;;;2.67;2.47;;;;;;;;;;5055759;28;20446;-77
2022/05/27 04:33:42;;;;;;;2.57;2.13;;;;;;;;;;5055611;28;20481;-80
2022/05/27 04:36:11;;;;;;;3.30;3.00;;;;;;;;;;5054348;28;20438;-78
2022/05/27 04:38:39;;;;;;;2.80;2.60;;;;;;;;;;5052210;28;20827;-78
2022/05/27 04:41:07;;;;;;;2.63;2.43;;;;;;;;;;5052497;28;20462;-78
2022/05/27 04:43:35;;;;;;;3.10;2.87;;;;;;;;;;5052341;28;20441;-77
2022/05/27 04:46:02;;;;;;;2.40;2.27;;;;;;;;;;5053275;28;20453;-77
2022/05/27 04:48:31;;;;;;;3.50;2.93;;;;;;;;;;5054700;28;20495;-78
2022/05/27 04:50:59;;;;;;;2.70;2.50;;;;;;;;;;5048257;28;20524;-77
2022/05/27 04:53:26;;;;;;;3.07;2.87;;;;;;;;;;5054625;28;20477;-77
2022/05/27 04:55:53;;;;;;;3.83;2.90;;;;;;;;;;5055744;28;20438;-79
2022/05/27 04:58:21;;;;;;;2.93;2.67;;;;;;;;;;5054577;28;20457;-78
2022/05/27 05:00:49;;;;;;;3.40;3.20;;;;;;;;;;5052340;28;20491;-79
2022/05/27 05:03:16;;;;;;;5.13;2.90;;;;;;;;;;5051982;28;20520;-77
2022/05/27 05:05:43;;;;;;;4.40;2.60;;;;;;;;;;5052854;28;20793;-79
2022/05/27 05:08:18;;;;;;;3.37;3.00;;;;;;;;;;5052242;28;20507;-78
2022/05/27 05:10:45;;;;;;;3.03;2.83;;;;;;;;;;5052601;28;20503;-78
2022/05/27 05:13:12;;;;;;;3.40;3.10;;;;;;;;;;5051894;28;20529;-78
2022/05/27 05:15:40;;;;;;;3.13;2.70;;;;;;;;;;5052350;28;20441;-78
2022/05/27 05:18:08;;;;;;;4.70;3.20;;;;;;;;;;5052742;28;20461;-79
2022/05/27 05:20:35;;;;;;;3.07;2.77;;;;;;;;;;5062827;28;20441;-78
2022/05/27 05:23:02;;;;;;;3.73;3.33;;;;;;;;;;5052746;28;20449;-77
2022/05/27 05:25:29;;;;;;;4.57;2.70;;;;;;;;;;5056320;28;20949;-78
2022/05/27 05:27:56;;;;;;;3.00;2.70;;;;;;;;;;5055842;28;20537;-78
2022/05/27 05:30:25;;;;;;;2.70;2.50;;;;;;;;;;5057574;28;20511;-78
2022/05/27 05:32:54;;;;;;;4.87;3.10;;;;;;;;;;5057904;28;20527;-78
2022/05/27 05:35:21;;;;;;;3.47;3.23;;;;;;;;;;5058060;28;20442;-78
2022/05/27 05:37:49;;;;;;;2.93;2.47;;;;;;;;;;5064444;28;20438;-79
2022/05/27 05:40:16;;;;;;;3.90;3.07;;;;;;;;;;5064656;28;20507;-78
2022/05/27 05:42:46;;;;;;;3.50;2.97;;;;;;;;;;5064818;28;20445;-79
2022/05/27 05:45:14;;;;;;;5.13;2.80;;;;;;;;;;5068281;28;20655;-79
2022/05/27 05:47:41;;;;;;;2.70;2.60;;;;;;;;;;5065158;28;20445;-78
2022/05/27 05:50:10;;;;;;;3.30;3.00;;;;;;;;;;5063856;28;20449;-77
2022/05/27 05:52:37;;;;;;;2.53;2.43;;;;;;;;;;5053227;28;20450;-78
2022/05/27 05:55:05;;;;;;;3.27;2.70;;;;;;;;;;5052262;28;20438;-78
2022/05/27 05:57:32;;;;;;;2.97;2.77;;;;;;;;;;5051917;28;20453;-78
2022/05/27 06:00:00;;;;;;;2.83;2.63;;;;;;;;;;5051939;28;20568;-78
2022/05/27 06:02:27;;;;;;;3.30;3.00;;;;;;;;;;5051812;28;20503;-78
2022/05/27 06:04:56;;;;;;;3.23;3.03;;;;;;;;;;5051363;28;20445;-80
2022/05/27 06:07:24;;;;;;;3.23;3.03;;;;;;;;;;5053202;28;20442;-79
2022/05/27 06:09:51;;;;;;;3.50;2.87;;;;;;;;;;5056388;28;20515;-77
2022/05/27 06:12:23;;;;;;;3.13;2.93;;;;;;;;;;5054968;28;20445;-79
2022/05/27 06:14:50;;;;;;;4.07;3.00;;;;;;;;;;5055211;28;20534;-79
2022/05/27 06:17:17;;;;;;;3.40;2.90;;;;;;;;;;5056350;28;20868;-78
2022/05/27 06:19:44;;;;;;;3.13;2.83;;;;;;;;;;5054581;28;21038;-78
2022/05/27 06:22:11;;;;;;;3.60;2.77;;;;;;;;;;5054013;28;20511;-79
2022/05/27 06:24:40;;;;;;;3.50;2.90;;;;;;;;;;5051038;28;20433;-80
2022/05/27 06:27:08;;;;;;;3.67;2.93;;;;;;;;;;5051595;28;20499;-78
2022/05/27 06:35:04;;;;;;;7.47;2.97;;;;;;;;;;5050905;28;20571;-78
2022/05/27 06:37:31;;;;;;;2.60;2.40;;;;;;;;;;5050751;28;20446;-78
2022/05/27 06:40:00;;;;;;;5.23;3.27;;;;;;;;;;5050626;28;20484;-78
2022/05/27 06:42:27;;;;;;;3.93;2.43;;;;;;;;;;5051192;28;20862;-78
2022/05/27 06:44:54;;;;;;;3.17;2.90;;;;;;;;;;5050356;28;20453;-78
2022/05/27 06:47:21;;;;;;;2.57;2.37;;;;;;;;;;5051047;28;20503;-78
2022/05/27 06:49:48;;;;;;;3.67;2.73;;;;;;;;;;5051365;28;20542;-80
2022/05/27 06:52:16;;;;;;;3.93;3.60;;;;;;;;;;5054725;28;20461;-80
2022/05/27 06:54:43;;;;;;;3.70;3.40;;;;;;;;;;5055061;28;20507;-79
2022/05/27 06:57:12;;;;;;;4.30;4.00;;;;;;;;;;5055421;28;20445;-80
2022/05/27 06:59:39;;;;;;;3.33;3.03;;;;;;;;;;5055328;28;20461;-78
2022/05/27 07:02:06;;;;;;;5.80;3.20;;;;;;;;;;5055285;28;20552;-77
2022/05/27 07:04:33;;;;;;;3.80;3.37;;;;;;;;;;5054116;28;20941;-78
2022/05/27 07:07:00;;;;;;;3.70;3.50;;;;;;;;;;5054645;28;20928;-80
2022/05/27 07:09:27;;;;;;;3.83;3.53;;;;;;;;;;5054605;28;20465;-77
2022/05/27 07:11:56;;;;;;;4.00;3.63;;;;;;;;;;5054589;28;20445;-79
2022/05/27 07:14:24;;;;;;;3.83;3.50;;;;;;;;;;5054142;28;20897;-77
2022/05/27 07:16:51;;;;;;;3.10;2.80;;;;;;;;;;5053914;28;20983;-77
2022/05/27 07:19:20;;;;;;;6.43;3.43;;;;;;;;;;5054144;28;20476;-78
2022/05/27 07:21:48;;;;;;;3.23;3.00;;;;;;;;;;5055329;28;20442;-78
2022/05/27 07:24:16;;;;;;;3.70;2.87;;;;;;;;;;5054270;28;20446;-78
2022/05/27 07:26:45;;;;;;;3.23;3.03;;;;;;;;;;5054233;28;20515;-77
2022/05/27 07:29:12;;;;;;;5.50;3.00;;;;;;;;;;5053942;28;20511;-79
2022/05/27 07:31:41;;;;;;;2.80;2.60;;;;;;;;;;5054631;28;20471;-78
2022/05/27 07:34:08;;;;;;;3.17;2.87;;;;;;;;;;5054892;28;20485;-79
2022/05/27 07:36:35;;;;;;;3.70;3.30;;;;;;;;;;5056280;28;20861;-78
2022/05/27 07:39:03;;;;;;;4.60;2.70;;;;;;;;;;5057836;28;20453;-79
2022/05/27 07:41:30;;;;;;;3.13;2.70;;;;;;;;;;5060876;28;20526;-78
2022/05/27 07:43:59;;;;;;;3.10;2.83;;;;;;;;;;5055642;28;20461;-78
2022/05/27 07:46:26;;;;;;;3.50;3.20;;;;;;;;;;5055017;28;20458;-78
2022/05/27 07:48:55;;;;;;;4.63;3.00;;;;;;;;;;5054154;28;20531;-79
2022/05/27 07:51:22;;;;;;;3.20;2.90;;;;;;;;;;5054140;28;20540;-79
2022/05/27 07:53:49;;;;;;;4.23;2.93;;;;;;;;;;5056538;28;20485;-79
2022/05/27 07:56:16;;;;;;;3.93;3.00;;;;;;;;;;5059556;28;20441;-78
2022/05/27 07:58:43;;;;;;;2.80;2.70;;;;;;;;;;5053847;28;20469;-79
2022/05/27 08:01:11;;;;;;;3.30;3.10;;;;;;;;;;5058988;28;20552;-79
2022/05/27 08:03:39;;;;;;;3.63;3.33;;;;;;;;;;5058470;28;20484;-79
2022/05/27 08:06:08;;;;;;;4.90;2.80;;;;;;;;;;5054780;28;20533;-79
2022/05/27 08:08:36;;;;;;;3.17;2.87;;;;;;;;;;5051364;28;20535;-77
2022/05/27 08:11:03;;;;;;;3.40;3.20;;;;;;;;;;5051647;28;20457;-78
2022/05/27 08:13:30;;;;;;;3.17;2.97;;;;;;;;;;5052274;28;20867;-78
2022/05/27 08:15:58;;;;;;;3.10;2.90;;;;;;;;;;5052867;28;20824;-80
2022/05/27 08:18:25;;;;;;;2.97;2.77;;;;;;;;;;5052775;28;21023;-78
2022/05/27 08:20:52;;;;;;;4.23;2.73;;;;;;;;;;5052829;28;20434;-78
2022/05/27 08:23:20;;;;;;;8.47;4.73;;;;;;;;;;5052719;28;20450;-78
2022/05/27 08:25:47;;;;;;;4.23;2.83;;;;;;;;;;5052318;28;20559;-77
2022/05/27 08:28:14;;;;;;;3.17;2.83;;;;;;;;;;5052857;28;20473;-78
2022/05/27 08:30:41;;;;;;;3.00;2.70;;;;;;;;;;5052903;28;20549;-78
2022/05/27 08:33:09;;;;;;;5.00;3.23;;;;;;;;;;5052491;28;20446;-78
2022/05/27 08:38:23;;;;;;;3.50;3.17;;;;;;;;;;5053319;28;20488;-78
2022/05/27 08:41:01;;;;;;;3.60;3.07;;;;;;;;;;5052942;28;20868;-77
2022/05/27 08:43:31;;;;;;;3.50;3.27;;;;;;;;;;5051839;28;20811;-78
2022/05/27 08:46:02;;;;;;;4.30;2.70;;;;;;;;;;5052552;28;20921;-78
2022/05/27 08:48:32;;;;;;;3.37;3.13;;;;;;;;;;5052815;28;20469;-78
2022/05/27 08:51:01;;;;;;;4.97;3.20;;;;;;;;;;5052926;28;20785;-79
2022/05/27 08:53:33;;;;;;;2.80;2.60;;;;;;;;;;5052470;28;20826;-79
2022/05/27 09:01:36;;;;;;;3.47;3.17;;;;;;;;;;5052463;28;20499;-77
2022/05/27 09:04:20;;;;;;;3.40;3.10;;;;;;;;;;5052156;28;20527;-77
2022/05/27 09:06:50;;;;;;;3.43;3.13;;;;;;;;;;5052020;28;20453;-79
2022/05/27 09:09:21;;;;;;;2.80;2.60;;;;;;;;;;5052520;28;20515;-77
2022/05/27 09:11:55;;;;;;;3.03;2.87;;;;;;;;;;5052216;28;20499;-78
2022/05/27 09:14:24;;;;;;;3.30;3.00;;;;;;;;;;5050939;28;21039;-79
2022/05/27 09:16:55;;;;;;;3.60;3.17;;;;;;;;;;5052069;28;20445;-78
2022/05/27 09:19:26;;;;;;;4.10;2.87;;;;;;;;;;5052335;28;20541;-77
2022/05/27 09:21:57;;;;;;;3.10;2.90;;;;;;;;;;5052368;28;20513;-78
2022/05/27 09:24:32;;;;;;;2.93;2.70;;;;;;;;;;5051278;28;20457;-78
2022/05/27 09:27:03;;;;;;;3.20;2.77;;;;;;;;;;5046106;28;20449;-78
2022/05/27 09:29:39;;;;;;;3.10;2.80;;;;;;;;;;5051701;28;20465;-79
2022/05/27 09:32:08;;;;;;;3.77;3.00;;;;;;;;;;5052261;28;20445;-77
2022/05/27 09:34:38;;;;;;;3.73;2.73;;;;;;;;;;5051051;28;21023;-78
2022/05/27 09:37:07;;;;;;;2.93;2.73;;;;;;;;;;5051836;28;20448;-79
2022/05/27 09:39:36;;;;;;;3.47;2.53;;;;;;;;;;5051797;28;20515;-78
2022/05/27 09:42:08;;;;;;;2.73;2.57;;;;;;;;;;5056791;28;20452;-78
2022/05/27 09:44:36;;;;;;;2.53;2.33;;;;;;;;;;5061738;28;20476;-77
2022/05/27 09:47:05;;;;;;;2.47;2.20;;;;;;;;;;5051220;28;20446;-80
2022/05/27 09:49:32;;;;;;;2.80;2.60;;;;;;;;;;5052050;28;20469;-78
2022/05/27 09:51:59;;;;;;;2.53;2.43;;;;;;;;;;5052087;28;20536;-78
2022/05/27 09:54:33;;;;;;;3.53;2.40;;;;;;;;;;5051776;28;20478;-78
2022/05/27 09:57:03;;;;;;;2.27;2.17;;;;;;;;;;5052043;28;20441;-78
2022/05/27 09:59:36;;;;;;;2.60;2.50;;;;;;;;;;5051728;28;20489;-78
2022/05/27 10:02:15;;;;;;;2.93;2.30;;;;;;;;;;5051410;28;20792;-78
2022/05/27 10:04:50;;;;;;;2.83;1.97;;;;;;;;;;5050885;28;20468;-77
2022/05/27 10:07:24;;;;;;;2.90;2.50;;;;;;;;;;5048875;28;20488;-78
2022/05/27 10:09:51;;;;;;;2.30;2.20;;;;;;;;;;5050889;28;20453;-78
2022/05/27 10:12:28;;;;;;;2.60;2.13;;;;;;;;;;5051344;28;20433;-77
2022/05/27 10:14:56;;;;;;;2.87;2.10;;;;;;;;;;5051759;28;20865;-78
2022/05/27 10:17:29;;;;;;;2.00;1.90;;;;;;;;;;5052064;28;20446;-78
2022/05/27 10:20:13;;;;;;;2.77;2.17;;;;;;;;;;5051610;28;20961;-78
2022/05/27 10:22:40;;;;;;;2.37;2.00;;;;;;;;;;5051496;28;20453;-78
2022/05/27 10:25:11;;;;;;;3.47;2.10;;;;;;;;;;5052717;28;20491;-78
2022/05/27 10:27:40;;;;;;;2.37;2.27;;;;;;;;;;5056298;28;20453;-79
2022/05/27 10:30:09;;;;;;;2.47;2.30;;;;;;;;;;5055800;28;20836;-78
2022/05/27 10:32:38;;;;;;;2.63;2.17;;;;;;;;;;5055424;28;20450;-79
2022/05/27 10:35:06;;;;;;;2.17;1.80;;;;;;;;;;5057119;28;20576;-78
2022/05/27 10:37:40;;;;;;;2.17;2.00;;;;;;;;;;5059570;28;20948;-80
2022/05/27 10:40:15;;;;;;;2.20;2.10;;;;;;;;;;5040952;28;20431;-79
2022/05/27 10:42:48;;;;;;;2.90;2.13;;;;;;;;;;5040299;28;20457;-79
2022/05/27 10:45:19;;;;;;;1.93;1.73;;;;;;;;;;5038992;28;20496;-78
2022/05/27 10:47:57;;;;;;;2.67;1.50;;;;;;;;;;5051945;28;20461;-80
2022/05/27 10:50:26;;;;;;;10.23;4.23;;;;;;;;;;5058647;28;20994;-76
2022/05/27 10:53:10;;;;;;;2.00;1.87;;;;;;;;;;5057388;28;20499;-78
2022/05/27 10:55:40;;;;;;;2.47;2.23;;;;;;;;;;5058132;28;20592;-78
2022/05/27 11:04:18;;;;;;;7.17;3.67;;;;;;;;;;4999182;28;20427;-79
2022/05/27 11:06:59;;;;;;;2.90;2.30;;;;;;;;;;5051747;28;20442;-79
2022/05/27 11:09:31;;;;;;;2.40;2.20;;;;;;;;;;5060230;28;20518;-79
2022/05/27 11:12:03;;;;;;;2.43;2.23;;;;;;;;;;5062452;28;20437;-79
2022/05/27 11:17:30;;;;;;;2.00;1.90;;;;;;;;;;5055683;28;20425;-80
2022/05/27 11:20:06;;;;;;;2.30;1.80;;;;;;;;;;5055363;28;20503;-79
2022/05/27 11:22:36;;;;;;;1.70;1.60;;;;;;;;;;5056197;28;20473;-79
2022/05/27 11:25:08;;;;;;;2.77;1.60;;;;;;;;;;5055762;28;20472;-79
2022/05/27 11:27:40;;;;;;;2.10;1.90;;;;;;;;;;5056174;28;20446;-79
2022/05/27 11:30:18;;;;;;;1.70;1.60;;;;;;;;;;5056651;28;20452;-79
2022/05/27 11:32:53;;;;;;;1.90;1.80;;;;;;;;;;5057437;28;20441;-80
2022/05/27 11:35:22;;;;;;;1.90;1.80;;;;;;;;;;5057632;28;20519;-79
2022/05/27 11:37:54;;;;;;;1.70;1.60;;;;;;;;;;5056901;28;20921;-79
2022/05/27 11:40:26;;;;;;;2.60;2.30;;;;;;;;;;5057171;28;20445;-79
2022/05/27 11:43:05;;;;;;;1.87;1.77;;;;;;;;;;5057157;28;20453;-80
2022/05/27 11:45:34;;;;;;;2.20;2.00;;;;;;;;;;5055081;28;20965;-80
2022/05/27 11:48:03;;;;;;;2.23;2.07;;;;;;;;;;5054153;28;20472;-79
2022/05/27 11:50:36;;;;;;;2.90;2.00;;;;;;;;;;5054094;28;20987;-78
2022/05/27 11:53:09;;;;;;;1.77;1.67;;;;;;;;;;5054029;28;20487;-80
2022/05/27 11:55:43;;;;;;;2.17;1.97;;;;;;;;;;5054318;28;20505;-79
2022/05/27 11:58:14;;;;;;;2.30;2.10;;;;;;;;;;5053618;28;20985;-79
2022/05/27 12:00:50;;;;;;;6.50;2.13;;;;;;;;;;5053952;28;20857;-78
2022/05/27 12:03:20;;;;;;;2.03;1.83;;;;;;;;;;5053713;28;20477;-78
2022/05/27 12:05:48;;;;;;;2.70;1.80;;;;;;;;;;5054334;28;20454;-79
2022/05/27 12:08:21;;;;;;;1.97;1.70;;;;;;;;;;5053739;28;20466;-79
2022/05/27 12:10:49;;;;;;;1.73;1.53;;;;;;;;;;5052565;28;20511;-79
2022/05/27 12:13:22;;;;;;;2.00;1.90;;;;;;;;;;5051629;28;20457;-78
2022/05/27 12:15:53;;;;;;;1.97;1.87;;;;;;;;;;5053584;28;20988;-79
2022/05/27 12:18:22;;;;;;;2.20;2.10;;;;;;;;;;5053842;28;20565;-79
2022/05/27 12:20:50;;;;;;;2.00;1.80;;;;;;;;;;5053489;28;20445;-78
2022/05/27 12:23:18;;;;;;;2.10;1.60;;;;;;;;;;5053126;28;20445;-78
2022/05/27 12:25:47;;;;;;;1.80;1.70;;;;;;;;;;5054029;28;20480;-80
2022/05/27 12:28:16;;;;;;;1.70;1.60;;;;;;;;;;5053417;28;20446;-81
2022/05/27 12:30:44;;;;;;;5.43;2.10;;;;;;;;;;5053480;28;20469;-82
2022/05/27 12:33:13;;;;;;;1.63;1.63;;;;;;;;;;5052761;28;20451;-81
2022/05/27 12:35:51;;;;;;;1.77;1.67;;;;;;;;;;5053229;28;20539;-79
2022/05/27 12:38:19;;;;;;;1.73;1.60;;;;;;;;;;5053202;28;20468;-80
2022/05/27 12:40:47;;;;;;;1.80;1.70;;;;;;;;;;5052942;28;20449;-77
2022/05/27 12:43:23;;;;;;;1.70;1.53;;;;;;;;;;5052308;28;20437;-79
2022/05/27 12:45:51;;;;;;;1.80;1.63;;;;;;;;;;5052968;28;20959;-79
2022/05/27 12:48:28;;;;;;;2.03;1.73;;;;;;;;;;5051840;28;20551;-80
2022/05/27 12:50:56;;;;;;;2.13;2.00;;;;;;;;;;5052791;28;20866;-79
2022/05/27 12:53:36;;;;;;;1.77;1.67;;;;;;;;;;5052398;28;20453;-79
2022/05/27 13:02:17;;;;;;;2.00;1.90;;;;;;;;;;5052444;28;20429;-81
2022/05/27 13:04:47;;;;;;;2.40;2.30;;;;;;;;;;5052034;28;20798;-79
2022/05/27 13:07:15;;;;;;;2.93;1.73;;;;;;;;;;5052229;28;20948;-80
2022/05/27 13:09:44;;;;;;;1.90;1.80;;;;;;;;;;5051950;28;20744;-78
2022/05/27 13:12:12;;;;;;;1.50;1.50;;;;;;;;;;5051907;28;20963;-79
2022/05/27 13:14:47;;;;;;;4.30;2.37;;;;;;;;;;5051896;28;20484;-80
2022/05/27 13:17:25;;;;;;;2.73;1.57;;;;;;;;;;5052198;28;20473;-78
2022/05/27 13:20:00;;;;;;;2.10;2.00;;;;;;;;;;5052534;28;20465;-78
2022/05/27 13:22:37;;;;;;;2.43;2.00;;;;;;;;;;5051967;28;20441;-80
2022/05/27 13:25:24;;;;;;;2.00;1.90;;;;;;;;;;5052155;28;20450;-79
2022/05/27 13:27:55;;;;;;;2.67;2.00;;;;;;;;;;5051260;28;20456;-78
2022/05/27 13:30:24;;;;;;;2.20;2.00;;;;;;;;;;5051506;28;20422;-79
2022/05/27 13:32:58;;;;;;;1.90;1.80;;;;;;;;;;5051672;28;20787;-79
2022/05/27 13:35:29;;;;;;;1.87;1.77;;;;;;;;;;5052520;28;20506;-79
2022/05/27 13:37:58;;;;;;;2.97;2.00;;;;;;;;;;5051899;28;20587;-78
2022/05/27 13:40:27;;;;;;;2.43;2.33;;;;;;;;;;5051362;28;20460;-78
2022/05/27 13:42:56;;;;;;;3.97;1.77;;;;;;;;;;5052572;28;20453;-80
2022/05/27 13:45:28;;;;;;;1.93;1.83;;;;;;;;;;5053167;28;20548;-79
2022/05/27 13:47:57;;;;;;;2.00;1.90;;;;;;;;;;5052791;28;20512;-78
2022/05/27 13:50:25;;;;;;;1.57;1.57;;;;;;;;;;5052730;28;20441;-78
2022/05/27 13:52:54;;;;;;;2.33;1.73;;;;;;;;;;5053266;28;20446;-78
2022/05/27 13:55:25;;;;;;;2.13;2.03;;;;;;;;;;5059503;28;20464;-77
2022/05/27 13:57:52;;;;;;;3.17;2.07;;;;;;;;;;5056415;28;21075;-79
2022/05/27 14:00:20;;;;;;;1.40;1.40;;;;;;;;;;5055110;28;20517;-78
2022/05/27 14:02:48;;;;;;;1.73;1.63;;;;;;;;;;5055781;28;20468;-79
2022/05/27 14:05:19;;;;;;;1.80;1.80;;;;;;;;;;5056380;28;20445;-78
2022/05/27 14:07:48;;;;;;;1.63;1.60;;;;;;;;;;5054951;28;20445;-78
2022/05/27 14:10:20;;;;;;;2.70;2.50;;;;;;;;;;5057808;28;20450;-79
2022/05/27 14:12:47;;;;;;;2.00;1.90;;;;;;;;;;5058747;28;20448;-79
2022/05/27 14:15:16;;;;;;;1.80;1.70;;;;;;;;;;5056295;28;20536;-80
2022/05/27 14:17:45;;;;;;;1.93;1.70;;;;;;;;;;5058200;28;20434;-80
2022/05/27 14:20:14;;;;;;;2.93;1.70;;;;;;;;;;5058011;28;20456;-78
2022/05/27 14:22:45;;;;;;;1.70;1.60;;;;;;;;;;5055120;28;20426;-79
2022/05/27 14:25:14;;;;;;;2.50;2.00;;;;;;;;;;5055333;28;20453;-78
2022/05/27 14:27:45;;;;;;;1.87;1.77;;;;;;;;;;5055324;28;20452;-79
2022/05/27 14:30:15;;;;;;;3.33;1.60;;;;;;;;;;5055151;28;20524;-78
2022/05/27 14:32:42;;;;;;;3.13;1.70;;;;;;;;;;5054760;28;20525;-80
2022/05/27 14:35:10;;;;;;;1.70;1.70;;;;;;;;;;5054862;28;20445;-78
2022/05/27 14:37:42;;;;;;;2.10;1.90;;;;;;;;;;5054803;28;20859;-79
2022/05/27 14:40:11;;;;;;;2.10;1.50;;;;;;;;;;5056480;28;20457;-79
2022/05/27 14:42:38;;;;;;;1.23;1.13;;;;;;;;;;5056381;28;20440;-78
2022/05/27 14:45:11;;;;;;;1.80;1.30;;;;;;;;;;5056567;28;20457;-78
2022/05/27 14:47:39;;;;;;;2.37;1.40;;;;;;;;;;5055645;28;20481;-78
2022/05/27 14:50:18;;;;;;;1.67;1.57;;;;;;;;;;5055609;28;20445;-78
2022/05/27 14:52:53;;;;;;;1.20;1.20;;;;;;;;;;5055874;28;20491;-78
2022/05/27 14:55:22;;;;;;;1.70;1.57;;;;;;;;;;5056883;28;20445;-79
2022/05/27 14:57:52;;;;;;;1.37;1.37;;;;;;;;;;5056032;28;20533;-78
2022/05/27 15:00:28;;;;;;;1.63;1.53;;;;;;;;;;5054966;28;20499;-78
2022/05/27 15:02:57;;;;;;;2.47;1.60;;;;;;;;;;5054705;28;20507;-79
2022/05/27 15:05:29;;;;;;;1.33;0.97;;;;;;;;;;5054951;28;20476;-80
2022/05/27 15:07:59;;;;;;;3.50;1.30;;;;;;;;;;5054372;28;20438;-78
2022/05/27 15:10:29;;;;;;;0.90;0.90;;;;;;;;;;5054220;28;20457;-80
2022/05/27 15:12:57;;;;;;;1.13;1.10;;;;;;;;;;5054726;28;20485;-78
2022/05/27 15:15:29;;;;;;;1.50;1.40;;;;;;;;;;5054332;28;20514;-79
2022/05/27 15:18:05;;;;;;;1.43;1.33;;;;;;;;;;5053910;28;20442;-78
2022/05/27 15:20:32;;;;;;;1.50;1.40;;;;;;;;;;5053677;28;20449;-78
2022/05/27 15:23:01;;;;;;;1.50;1.40;;;;;;;;;;5053687;28;20441;-79
2022/05/27 15:25:31;;;;;;;1.60;1.27;;;;;;;;;;5054194;28;20528;-80
2022/05/27 15:33:41;;;;;;;1.00;1.00;;;;;;;;;;5053844;28;20503;-78
2022/05/27 15:36:09;;;;;;;1.50;1.23;;;;;;;;;;5056129;28;20469;-78